Terminal Aerodrome Forecast
Issued by NWS

Home | Current Version | Previous Version | Text Only | Print | Product List | Glossary On
Versions: 1 2 3 4 5 6 7 8 9 10 11 12 13 14 15 16 17 18 19 20 21 22
000
FTUS41 KOKX 311100
TAFHPN
TAF
KHPN 311123Z 3112/0112 31018G28KT P6SM SKC
     FM312000 30015G23KT P6SM SKC
     FM312300 30012G18KT P6SM SKC
     FM010200 28007KT P6SM SKC
      AMD NOT SKED=

USA.gov is the U.S. government's official web portal to all federal, state and local government web resources and services.